createdAt,value
2018-03-30T15:31:52.207Z,83.74
2018-03-30T15:34:18.463Z,85.99
2018-03-30T15:36:55.615Z,87.13
2018-03-30T15:39:21.832Z,89.67
2018-03-30T15:41:50.919Z,90.75
2018-03-30T15:44:17.227Z,91.45
2018-03-30T15:46:43.490Z,92.89
2018-03-30T15:49:09.818Z,94.28
2018-03-30T15:51:36.068Z,95.57
2018-03-30T15:54:01.996Z,95.96
2018-03-30T15:56:29.078Z,95.66
2018-03-30T15:58:55.257Z,95.82
2018-03-30T16:01:21.480Z,96.12
2018-03-30T16:03:47.735Z,96.08
2018-03-30T16:06:13.898Z,96.13
2018-03-30T16:08:40.116Z,96.29
2018-03-30T16:11:19.171Z,96.66
2018-03-30T16:13:45.345Z,97.10
2018-03-30T16:16:11.554Z,96.85
2018-03-30T16:18:49.636Z,96.87
2018-03-30T16:21:15.575Z,96.98
2018-03-30T16:23:41.473Z,96.86
2018-03-30T16:26:07.504Z,97.28
2018-03-30T16:28:33.433Z,96.85
2018-03-30T16:30:59.351Z,97.38
2018-03-30T16:33:25.247Z,97.42
2018-03-30T16:35:51.149Z,97.76
2018-03-30T16:38:17.082Z,97.54
2018-03-30T16:40:43.016Z,97.14
2018-03-30T16:43:08.876Z,96.73
2018-03-30T16:45:34.734Z,97.59
2018-03-30T16:48:00.634Z,97.57
2018-03-30T16:50:26.588Z,97.31
2018-03-30T16:52:52.459Z,98.26
2018-03-30T16:55:18.435Z,97.26
2018-03-30T16:57:44.311Z,98.19
2018-03-30T17:00:10.252Z,97.78
2018-03-30T17:02:36.126Z,97.21
2018-03-30T17:05:02.431Z,97.64
2018-03-30T17:07:28.310Z,97.68
2018-03-30T17:09:54.218Z,98.15
2018-03-30T17:12:20.210Z,97.96
2018-03-30T17:14:46.073Z,98.07
2018-03-30T17:17:11.946Z,97.77
2018-03-30T17:19:37.812Z,97.96
2018-03-30T17:22:03.776Z,98.33
2018-03-30T17:24:29.599Z,98.35
2018-03-30T17:26:55.487Z,97.92
2018-03-30T17:29:21.370Z,98.30
2018-03-30T17:31:47.313Z,98.73
2018-03-30T17:34:13.252Z,98.03
2018-03-30T17:36:39.125Z,98.52
2018-03-30T17:39:04.978Z,98.64
2018-03-30T17:41:30.920Z,98.49
2018-03-30T17:43:56.808Z,98.41
2018-03-30T17:46:22.668Z,98.43
2018-03-30T17:48:48.584Z,98.76
2018-03-30T17:51:14.569Z,98.91
2018-03-30T17:53:40.452Z,99.05
2018-03-30T17:56:06.390Z,98.83
2018-03-30T17:58:32.347Z,98.96
2018-03-30T18:00:58.362Z,98.90
2018-03-30T18:03:24.318Z,98.06
2018-03-30T18:05:50.277Z,98.08
2018-03-30T18:08:16.254Z,98.22
2018-03-30T18:10:42.237Z,97.94
2018-03-30T18:13:08.164Z,98.68
2018-03-30T18:15:34.090Z,99.04
2018-03-30T18:18:00.046Z,99.07
2018-03-30T18:20:26.056Z,98.39
2018-03-30T18:22:51.981Z,97.84
2018-03-30T18:25:17.892Z,97.57
2018-03-30T18:27:43.818Z,95.66
2018-03-30T18:30:09.746Z,95.23
2018-03-30T18:32:35.665Z,95.00
2018-03-30T18:35:01.804Z,95.40
2018-03-30T18:37:27.753Z,95.90
2018-03-30T18:39:53.705Z,96.04
2018-03-30T18:42:19.651Z,96.97
2018-03-30T18:44:45.586Z,97.15
2018-03-30T18:47:11.471Z,97.59
2018-03-30T18:49:37.423Z,97.90
2018-03-30T18:52:03.365Z,98.10
2018-03-30T18:54:29.288Z,98.29
2018-03-30T18:56:55.176Z,98.78
2018-03-30T18:59:21.194Z,98.96
2018-03-30T19:01:47.117Z,99.17
2018-03-30T19:04:13.144Z,99.28
2018-03-30T19:06:39.090Z,99.33
2018-03-30T19:09:04.979Z,99.71
2018-03-30T19:11:30.973Z,99.62
2018-03-30T19:13:56.921Z,99.80
2018-03-30T19:16:22.861Z,99.46
2018-03-30T19:18:48.766Z,99.48
2018-03-30T19:21:14.716Z,99.54
2018-03-30T19:23:40.625Z,99.43
2018-03-30T19:26:06.586Z,99.37
2018-03-30T19:28:32.487Z,99.36
2018-03-30T19:30:58.446Z,99.34
2018-03-30T19:33:24.422Z,99.34
2018-03-30T19:35:50.340Z,99.29
2018-03-30T19:38:16.250Z,99.34
2018-03-30T19:40:42.352Z,99.35
2018-03-30T19:43:08.286Z,99.51
2018-03-30T19:45:34.198Z,99.60
2018-03-30T19:48:00.155Z,99.43
2018-03-30T19:50:26.116Z,99.21
2018-03-30T19:52:52.035Z,99.07
2018-03-30T19:55:17.973Z,98.54
2018-03-30T19:57:43.866Z,98.23
2018-03-30T20:00:09.853Z,98.22
2018-03-30T20:02:35.782Z,98.42
2018-03-30T20:05:01.733Z,98.79
2018-03-30T20:07:27.644Z,98.65
2018-03-30T20:09:53.634Z,98.79
2018-03-30T20:12:19.504Z,98.99
2018-03-30T20:14:45.409Z,98.99
2018-03-30T20:17:11.344Z,98.95
2018-03-30T20:19:37.248Z,98.62
2018-03-30T20:22:03.211Z,98.49
2018-03-30T20:24:29.143Z,98.43
2018-03-30T20:26:55.065Z,98.29
2018-03-30T20:29:21.064Z,98.24
2018-03-30T20:31:46.983Z,98.27
2018-03-30T20:34:12.933Z,98.38
2018-03-30T20:36:38.886Z,97.78
2018-03-30T20:39:04.799Z,97.02
2018-03-30T20:41:30.742Z,96.99
2018-03-30T20:43:56.696Z,96.56
2018-03-30T20:46:22.618Z,96.33
2018-03-30T20:48:48.545Z,96.14
2018-03-30T20:51:14.499Z,95.58
2018-03-30T20:53:40.439Z,95.86
2018-03-30T20:56:06.339Z,95.73
2018-03-30T20:58:32.264Z,95.77
2018-03-30T21:00:58.219Z,95.30
2018-03-30T21:03:24.186Z,95.24
2018-03-30T21:05:50.134Z,94.89
2018-03-30T21:08:16.080Z,95.13
2018-03-30T21:10:42.043Z,95.36
2018-03-30T21:13:07.945Z,95.24
2018-03-30T21:15:33.986Z,95.44
2018-03-30T21:17:59.913Z,95.53
2018-03-30T21:20:25.862Z,95.65
2018-03-30T21:22:51.749Z,95.80
2018-03-30T21:25:17.773Z,95.84
2018-03-30T21:27:43.710Z,95.77
2018-03-30T21:30:09.719Z,95.85
2018-03-30T21:32:35.628Z,95.82
2018-03-30T21:35:01.613Z,95.67
2018-03-30T21:37:27.526Z,95.45
2018-03-30T21:39:53.439Z,95.33
2018-03-30T21:42:19.439Z,95.02
2018-03-30T21:44:45.378Z,95.23
2018-03-30T21:47:11.326Z,94.81
2018-03-30T21:49:37.266Z,94.70
2018-03-30T21:52:03.236Z,94.77
2018-03-30T21:54:29.113Z,94.50
2018-03-30T21:56:55.008Z,94.46
2018-03-30T21:59:20.965Z,94.39
2018-03-30T22:01:46.908Z,93.94
2018-03-30T22:04:12.820Z,93.88
2018-03-30T22:06:38.728Z,93.46
2018-03-30T22:09:04.622Z,93.63
2018-03-30T22:11:30.633Z,93.31
2018-03-30T22:13:56.518Z,92.90
2018-03-30T22:16:22.438Z,92.77
2018-03-30T22:18:48.360Z,92.15
2018-03-30T22:21:14.290Z,92.10
2018-03-30T22:23:40.176Z,91.94
2018-03-30T22:26:06.101Z,91.72
2018-03-30T22:28:32.055Z,91.58
2018-03-30T22:30:58.020Z,91.50
2018-03-30T22:33:24.012Z,91.73
2018-03-30T22:35:49.990Z,92.14
2018-03-30T22:38:15.884Z,92.10
2018-03-30T22:40:41.849Z,92.33
2018-03-30T22:43:07.759Z,92.42
2018-03-30T22:45:33.699Z,92.57
2018-03-30T22:47:59.642Z,92.40
2018-03-30T22:50:25.598Z,92.69
2018-03-30T22:52:51.496Z,93.12
2018-03-30T22:55:17.459Z,92.75
2018-03-30T22:57:43.363Z,92.98
2018-03-30T23:00:09.262Z,92.78
2018-03-30T23:02:35.223Z,92.46
2018-03-30T23:05:01.190Z,92.52
2018-03-30T23:07:27.085Z,92.33
2018-03-30T23:09:53.033Z,92.69
2018-03-30T23:12:18.994Z,92.89
2018-03-30T23:14:44.925Z,93.17
2018-03-30T23:17:10.866Z,93.42
2018-03-30T23:19:36.855Z,93.64
2018-03-30T23:22:02.819Z,93.94
2018-03-30T23:24:28.709Z,94.32
2018-03-30T23:26:54.609Z,94.52
2018-03-30T23:29:20.518Z,94.75
2018-03-30T23:31:46.479Z,95.02
2018-03-30T23:34:12.493Z,95.49
2018-03-30T23:36:38.396Z,95.58
2018-03-30T23:39:04.410Z,95.76
2018-03-30T23:41:30.407Z,95.87
2018-03-30T23:43:56.331Z,96.29
2018-03-30T23:46:22.302Z,97.07
2018-03-30T23:48:48.183Z,97.21
2018-03-30T23:51:14.179Z,97.15
2018-03-30T23:53:40.092Z,97.24
2018-03-30T23:56:06.002Z,97.36
2018-03-30T23:58:31.932Z,97.47
